createdAt,value
2019-05-29T00:02:12.742Z,3.07
2019-05-29T00:04:42.030Z,2.17
2019-05-29T00:07:12.209Z,2.10
2019-05-29T00:09:41.741Z,2.30
2019-05-29T00:12:14.976Z,2.60
2019-05-29T00:14:42.053Z,2.50
2019-05-29T00:17:12.483Z,2.60
2019-05-29T00:19:41.882Z,2.63
2019-05-29T00:22:12.319Z,3.00
2019-05-29T00:24:41.775Z,2.80
2019-05-29T00:27:12.901Z,3.03
2019-05-29T00:29:42.181Z,3.20
2019-05-29T00:32:11.959Z,2.87
2019-05-29T00:34:42.613Z,2.77
2019-05-29T00:37:12.485Z,3.07
2019-05-29T00:39:42.342Z,3.47
2019-05-29T00:42:13.213Z,3.40
2019-05-29T00:44:42.609Z,3.00
2019-05-29T00:47:11.885Z,3.20
2019-05-29T00:49:41.156Z,2.80
2019-05-29T00:52:10.442Z,2.00
2019-05-29T00:54:39.702Z,2.10
2019-05-29T00:57:08.990Z,1.70
2019-05-29T00:59:38.169Z,1.60
2019-05-29T01:02:07.516Z,1.23
2019-05-29T01:04:36.910Z,1.30
2019-05-29T01:07:06.179Z,1.10
2019-05-29T01:09:35.602Z,0.90
2019-05-29T01:12:05.005Z,1.20
2019-05-29T01:14:47.248Z,1.10
2019-05-29T01:17:05.534Z,1.00
2019-05-29T01:19:34.805Z,1.00
2019-05-29T01:22:04.057Z,0.93
2019-05-29T01:24:33.320Z,0.93
2019-05-29T01:27:02.606Z,1.10
2019-05-29T01:29:31.861Z,1.10
2019-05-29T01:32:01.162Z,0.90
2019-05-29T01:34:30.457Z,1.20
2019-05-29T01:36:59.793Z,1.10
2019-05-29T01:39:29.098Z,1.20
2019-05-29T01:41:58.345Z,1.67
2019-05-29T01:44:27.855Z,2.27
2019-05-29T01:46:57.262Z,3.43
2019-05-29T01:49:27.937Z,4.70
2019-05-29T01:51:57.465Z,6.30
2019-05-29T01:54:27.915Z,7.33
2019-05-29T01:56:57.389Z,5.97
2019-05-29T01:59:27.863Z,6.13
2019-05-29T02:01:57.359Z,5.63
2019-05-29T02:04:26.682Z,5.93
2019-05-29T02:06:55.962Z,6.20
2019-05-29T02:09:25.210Z,7.17
2019-05-29T02:11:54.420Z,6.63
2019-05-29T02:14:24.887Z,5.90
2019-05-29T02:16:54.332Z,6.40
2019-05-29T02:19:24.000Z,5.17
2019-05-29T02:21:53.509Z,5.07
2019-05-29T02:24:23.255Z,3.17
2019-05-29T02:26:52.759Z,2.80
2019-05-29T02:29:22.958Z,2.50
2019-05-29T02:31:52.310Z,3.90
2019-05-29T02:34:22.631Z,4.20
2019-05-29T02:36:52.603Z,4.13
2019-05-29T02:39:23.101Z,4.77
2019-05-29T02:41:52.841Z,7.90
2019-05-29T02:44:23.490Z,5.60
2019-05-29T02:46:52.844Z,5.63
2019-05-29T02:49:23.748Z,5.00
2019-05-29T02:51:53.546Z,4.80
2019-05-29T02:54:24.703Z,4.83
2019-05-29T02:56:53.809Z,5.17
2019-05-29T02:59:23.545Z,5.60
2019-05-29T03:01:54.074Z,5.83
2019-05-29T03:04:24.084Z,5.43
2019-05-29T03:06:54.429Z,4.50
2019-05-29T03:09:24.755Z,4.10
2019-05-29T03:11:54.953Z,3.70
2019-05-29T03:14:25.238Z,3.37
2019-05-29T03:16:54.757Z,3.67
2019-05-29T03:19:24.052Z,4.60
2019-05-29T03:21:53.760Z,4.60
2019-05-29T03:24:24.502Z,3.50
2019-05-29T03:26:53.930Z,2.57
2019-05-29T03:29:23.235Z,2.10
2019-05-29T03:31:52.556Z,2.57
2019-05-29T03:34:21.935Z,2.40
2019-05-29T03:36:51.249Z,1.60
2019-05-29T03:39:20.507Z,1.50
2019-05-29T03:41:49.776Z,1.40
2019-05-29T03:44:19.098Z,1.30
2019-05-29T03:46:48.347Z,1.30
2019-05-29T03:49:17.638Z,1.57
2019-05-29T03:51:46.903Z,1.40
2019-05-29T03:54:16.212Z,1.50
2019-05-29T03:56:45.548Z,1.50
2019-05-29T03:59:14.834Z,1.70
2019-05-29T04:01:44.091Z,1.37
2019-05-29T04:04:13.374Z,1.37
2019-05-29T04:06:46.928Z,1.40
2019-05-29T04:09:13.656Z,1.50
2019-05-29T04:11:43.142Z,1.70
2019-05-29T04:14:12.969Z,1.40
2019-05-29T04:16:59.275Z,1.37
2019-05-29T04:19:15.829Z,1.40
2019-05-29T04:21:46.630Z,1.70
2019-05-29T04:24:18.783Z,2.00
2019-05-29T04:26:49.219Z,1.83
2019-05-29T04:29:19.470Z,2.00
2019-05-29T04:31:48.666Z,2.00
2019-05-29T04:34:18.003Z,1.80
2019-05-29T04:36:47.280Z,2.10
2019-05-29T04:39:16.548Z,2.10
2019-05-29T04:41:45.844Z,2.30
2019-05-29T04:44:15.128Z,2.90
2019-05-29T04:46:44.386Z,3.20
2019-05-29T04:49:13.648Z,3.07
2019-05-29T04:51:43.207Z,3.03
2019-05-29T04:54:12.463Z,3.10
2019-05-29T04:56:41.803Z,2.70
2019-05-29T04:59:11.087Z,3.20
2019-05-29T05:01:40.307Z,2.93
2019-05-29T05:04:09.566Z,3.00
2019-05-29T05:06:39.509Z,2.63
2019-05-29T05:09:08.930Z,3.00
2019-05-29T05:11:38.227Z,2.77
2019-05-29T05:14:07.506Z,2.70
2019-05-29T05:16:37.817Z,2.90
2019-05-29T05:19:07.205Z,2.90
2019-05-29T05:21:36.481Z,2.77
2019-05-29T05:24:05.703Z,3.03
2019-05-29T05:26:36.200Z,3.30
2019-05-29T05:29:05.668Z,3.13
2019-05-29T05:31:36.407Z,2.83
2019-05-29T05:34:06.093Z,3.40
2019-05-29T05:36:36.791Z,3.50
2019-05-29T05:39:07.535Z,3.90
2019-05-29T05:41:37.004Z,3.43
2019-05-29T05:44:06.294Z,3.97
2019-05-29T05:46:35.611Z,3.40
2019-05-29T05:49:05.087Z,3.80
2019-05-29T05:51:38.134Z,3.70
2019-05-29T05:54:05.494Z,3.50
2019-05-29T05:56:35.611Z,3.47
2019-05-29T05:59:05.154Z,3.33
2019-05-29T06:01:35.825Z,3.80
2019-05-29T06:04:05.261Z,3.53
2019-05-29T06:06:34.586Z,3.47
2019-05-29T06:09:04.992Z,3.43
2019-05-29T06:11:34.313Z,3.87
2019-05-29T06:14:03.577Z,3.40
2019-05-29T06:16:32.998Z,3.67
2019-05-29T06:19:02.490Z,3.53
2019-05-29T06:21:32.550Z,3.37
2019-05-29T06:24:01.902Z,3.13
2019-05-29T06:26:31.206Z,3.20
2019-05-29T06:29:00.485Z,3.23
2019-05-29T06:31:29.753Z,3.00
2019-05-29T06:33:59.025Z,3.00
2019-05-29T06:36:28.287Z,3.00
2019-05-29T06:38:57.583Z,3.20
2019-05-29T06:41:26.989Z,2.70
2019-05-29T06:43:56.234Z,2.70
2019-05-29T06:46:25.510Z,2.80
2019-05-29T06:49:00.232Z,3.50
2019-05-29T06:51:25.856Z,3.20
2019-05-29T06:53:55.094Z,3.13
2019-05-29T06:56:24.390Z,3.20
2019-05-29T06:58:53.666Z,3.50
2019-05-29T07:04:11.793Z,3.20
2019-05-29T07:06:38.556Z,2.70
2019-05-29T07:09:07.990Z,2.80
2019-05-29T07:11:37.317Z,3.10
2019-05-29T07:14:06.794Z,3.20
2019-05-29T07:16:45.187Z,3.20
2019-05-29T07:19:25.352Z,2.80
2019-05-29T07:21:38.884Z,2.77
2019-05-29T07:24:08.406Z,2.80
2019-05-29T07:26:38.818Z,2.70
2019-05-29T07:29:08.799Z,3.00
2019-05-29T07:31:38.863Z,3.03
2019-05-29T07:34:08.232Z,2.73
2019-05-29T07:36:37.987Z,2.70
2019-05-29T07:39:08.042Z,3.30
2019-05-29T07:41:37.450Z,2.80
2019-05-29T07:44:06.763Z,3.47
2019-05-29T07:46:36.042Z,3.53
2019-05-29T07:49:05.525Z,3.33
2019-05-29T07:51:34.908Z,3.30
2019-05-29T07:54:04.210Z,3.10
2019-05-29T07:56:33.529Z,3.20
2019-05-29T07:59:03.719Z,3.17
2019-05-29T08:01:33.148Z,2.70
2019-05-29T08:04:02.542Z,2.80
2019-05-29T08:09:09.966Z,3.00
2019-05-29T08:11:39.532Z,2.87
2019-05-29T08:14:08.956Z,2.90
2019-05-29T08:16:38.246Z,2.90
2019-05-29T08:19:08.176Z,2.77
2019-05-29T08:21:37.558Z,2.90
2019-05-29T08:24:06.902Z,3.37
2019-05-29T08:26:36.282Z,3.10
2019-05-29T08:29:05.751Z,3.30
2019-05-29T08:31:35.018Z,2.97
2019-05-29T08:34:04.395Z,3.37
2019-05-29T08:36:33.651Z,3.03
2019-05-29T08:39:03.001Z,3.20
2019-05-29T08:41:32.343Z,3.03
2019-05-29T08:44:01.544Z,3.13
2019-05-29T08:46:33.332Z,3.47
2019-05-29T08:49:01.798Z,3.40
2019-05-29T08:51:31.055Z,4.00
2019-05-29T08:54:00.407Z,3.47
2019-05-29T08:56:29.670Z,3.77
2019-05-29T08:58:59.016Z,4.10
2019-05-29T09:01:28.329Z,3.67
2019-05-29T09:03:57.741Z,3.67
2019-05-29T09:06:27.090Z,3.63
2019-05-29T09:08:56.414Z,3.43
2019-05-29T09:11:25.839Z,3.90
2019-05-29T09:13:55.082Z,3.50
2019-05-29T09:16:24.401Z,3.60
2019-05-29T09:18:53.646Z,3.80
2019-05-29T09:21:26.385Z,4.07
2019-05-29T09:23:53.970Z,3.60
2019-05-29T09:26:25.876Z,3.30
2019-05-29T09:28:54.302Z,3.27
2019-05-29T09:31:23.943Z,2.93
2019-05-29T09:33:53.296Z,3.30
2019-05-29T09:36:22.833Z,3.73
2019-05-29T09:38:52.472Z,3.47
2019-05-29T09:41:23.487Z,4.87
2019-05-29T09:43:59.399Z,8.10
2019-05-29T09:46:24.015Z,8.87
2019-05-29T09:48:53.265Z,7.00
2019-05-29T09:51:22.871Z,5.63
2019-05-29T09:53:52.530Z,5.23
2019-05-29T09:56:23.170Z,4.87
2019-05-29T09:58:53.675Z,4.87
2019-05-29T10:01:25.109Z,4.63
2019-05-29T10:03:56.374Z,4.13
2019-05-29T10:06:25.433Z,4.83
2019-05-29T10:08:56.066Z,5.40
2019-05-29T10:11:25.622Z,5.10
2019-05-29T10:13:55.592Z,4.90
2019-05-29T10:16:26.030Z,5.40
2019-05-29T10:18:56.163Z,4.70
2019-05-29T10:21:39.203Z,4.87
2019-05-29T10:23:57.986Z,5.60
2019-05-29T10:26:28.307Z,5.13
2019-05-29T10:29:07.354Z,5.60
2019-05-29T10:31:29.041Z,4.93
2019-05-29T10:33:58.366Z,4.57
2019-05-29T10:36:27.689Z,4.83
2019-05-29T10:38:57.039Z,4.47
2019-05-29T10:41:26.293Z,5.17
2019-05-29T10:43:55.490Z,4.90
2019-05-29T10:46:24.750Z,4.50
2019-05-29T10:48:56.468Z,4.60
2019-05-29T10:51:25.065Z,4.40
2019-05-29T10:53:57.493Z,4.43
2019-05-29T10:56:25.386Z,4.20
2019-05-29T10:58:59.558Z,4.20
2019-05-29T11:01:25.802Z,5.20
2019-05-29T11:03:55.847Z,5.20
2019-05-29T11:06:25.339Z,4.80
2019-05-29T11:08:56.131Z,5.30
2019-05-29T11:11:25.589Z,5.27
2019-05-29T11:13:55.165Z,5.03
2019-05-29T11:16:24.657Z,5.10
2019-05-29T11:18:55.229Z,4.50
2019-05-29T11:21:24.657Z,4.87
2019-05-29T11:23:53.931Z,4.57
2019-05-29T11:26:23.281Z,4.83
2019-05-29T11:28:52.542Z,5.53
2019-05-29T11:31:21.881Z,5.27
2019-05-29T11:33:51.202Z,5.13
2019-05-29T11:36:20.461Z,5.67
2019-05-29T11:38:50.486Z,4.70
2019-05-29T11:41:26.413Z,4.73
2019-05-29T11:43:50.885Z,4.77
2019-05-29T11:46:20.142Z,4.70
2019-05-29T11:48:49.436Z,4.27
2019-05-29T11:51:18.695Z,4.37
2019-05-29T11:53:48.048Z,4.47
2019-05-29T11:56:17.370Z,4.50
2019-05-29T11:58:46.640Z,4.87
2019-05-29T12:01:15.974Z,4.80
2019-05-29T12:04:09.618Z,4.70
2019-05-29T12:06:16.333Z,4.60
2019-05-29T12:08:45.594Z,4.77
2019-05-29T12:11:14.893Z,5.00
2019-05-29T12:13:44.245Z,4.70
2019-05-29T12:16:13.639Z,4.30
2019-05-29T12:18:43.066Z,4.80
2019-05-29T12:21:12.386Z,4.20
2019-05-29T12:23:41.609Z,4.47
2019-05-29T12:26:21.979Z,4.13
2019-05-29T12:28:41.902Z,4.60
2019-05-29T12:31:11.197Z,4.87
2019-05-29T12:33:40.643Z,4.93
2019-05-29T12:36:10.125Z,4.70
2019-05-29T12:38:39.450Z,4.27
2019-05-29T12:41:08.765Z,4.47
2019-05-29T12:43:38.046Z,4.17
2019-05-29T12:46:07.513Z,4.40
2019-05-29T12:48:36.814Z,4.50
2019-05-29T12:51:06.086Z,3.63
2019-05-29T12:53:35.514Z,3.93
2019-05-29T12:56:05.023Z,4.37
2019-05-29T12:58:34.309Z,4.60
2019-05-29T13:01:05.186Z,4.00
2019-05-29T13:03:35.610Z,3.93
2019-05-29T13:06:04.986Z,3.40
2019-05-29T13:08:34.237Z,3.23
2019-05-29T13:11:04.958Z,3.60
2019-05-29T13:13:34.545Z,2.90
2019-05-29T13:16:05.182Z,3.47
2019-05-29T13:18:34.757Z,2.90
2019-05-29T13:21:05.061Z,3.30
2019-05-29T13:23:44.731Z,3.30
2019-05-29T13:26:06.066Z,3.70
2019-05-29T13:28:35.415Z,3.50
2019-05-29T13:31:06.676Z,3.77
2019-05-29T13:33:35.997Z,3.77
2019-05-29T13:36:06.719Z,3.80
2019-05-29T13:38:36.689Z,3.97
2019-05-29T13:41:06.650Z,3.40
2019-05-29T13:43:36.151Z,3.67
2019-05-29T13:46:05.684Z,3.17
2019-05-29T13:48:35.014Z,3.00
2019-05-29T13:51:05.528Z,4.00
2019-05-29T13:53:35.021Z,3.70
2019-05-29T13:56:04.301Z,3.67
2019-05-29T13:58:33.579Z,3.47
2019-05-29T14:01:04.186Z,2.93
2019-05-29T14:03:33.887Z,3.33
2019-05-29T14:06:03.714Z,2.80
2019-05-29T14:08:34.158Z,3.10
2019-05-29T14:11:03.562Z,3.07
2019-05-29T14:13:34.076Z,2.83
2019-05-29T14:16:04.201Z,3.03
2019-05-29T14:18:33.619Z,2.93
2019-05-29T14:21:03.237Z,2.93
2019-05-29T14:23:32.722Z,3.03
2019-05-29T14:26:02.339Z,2.43
2019-05-29T14:28:31.759Z,2.63
2019-05-29T14:31:01.822Z,2.80
2019-05-29T14:33:31.220Z,2.57
2019-05-29T14:36:01.088Z,2.47
2019-05-29T14:38:30.437Z,2.30
2019-05-29T14:40:59.698Z,2.33
2019-05-29T14:43:29.389Z,2.30
2019-05-29T14:45:58.735Z,2.40
2019-05-29T14:48:28.072Z,2.30
2019-05-29T14:50:57.351Z,2.40
2019-05-29T14:53:26.618Z,2.30
2019-05-29T14:55:55.921Z,2.53
2019-05-29T14:58:25.214Z,2.50
2019-05-29T15:00:54.606Z,2.23
2019-05-29T15:03:23.931Z,2.20
2019-05-29T15:05:53.238Z,2.50
2019-05-29T15:08:22.514Z,2.53
2019-05-29T15:10:51.941Z,2.80
2019-05-29T15:13:21.230Z,2.70
2019-05-29T15:15:50.496Z,2.73
2019-05-29T15:18:19.837Z,2.50
2019-05-29T15:20:49.118Z,2.23
2019-05-29T15:23:18.435Z,2.37
2019-05-29T15:25:47.694Z,2.30
2019-05-29T15:28:18.048Z,2.37
2019-05-29T15:30:47.591Z,2.87
2019-05-29T15:33:16.986Z,2.40
2019-05-29T15:35:48.404Z,2.40
2019-05-29T15:38:20.232Z,2.60
2019-05-29T15:40:49.655Z,2.60
2019-05-29T15:43:19.053Z,2.60
2019-05-29T15:45:48.497Z,2.27
2019-05-29T15:48:17.890Z,2.20
2019-05-29T15:50:47.153Z,2.30
2019-05-29T15:53:17.291Z,2.43
2019-05-29T15:55:46.691Z,2.20
2019-05-29T15:58:17.780Z,2.40
2019-05-29T16:00:47.471Z,2.20
2019-05-29T16:03:17.772Z,2.67
2019-05-29T16:05:47.260Z,2.20
2019-05-29T16:08:16.552Z,2.00
2019-05-29T16:10:45.838Z,2.30
2019-05-29T16:13:15.122Z,2.03
2019-05-29T16:15:44.474Z,2.30
2019-05-29T16:18:23.197Z,2.23
2019-05-29T16:20:44.756Z,1.93
2019-05-29T16:23:28.500Z,2.10
2019-05-29T16:25:45.022Z,1.97
2019-05-29T16:28:15.160Z,2.23
2019-05-29T16:30:44.602Z,2.10
2019-05-29T16:33:15.062Z,1.80
2019-05-29T16:35:44.522Z,2.00
2019-05-29T16:38:14.144Z,2.10
2019-05-29T16:40:44.929Z,2.20
2019-05-29T16:43:14.274Z,1.80
2019-05-29T16:45:43.639Z,2.60
2019-05-29T16:48:13.031Z,2.30
2019-05-29T16:50:42.709Z,2.30
2019-05-29T16:53:12.613Z,2.00
2019-05-29T16:55:53.372Z,2.80
2019-05-29T16:58:13.084Z,2.17
2019-05-29T17:00:42.338Z,2.20
2019-05-29T17:03:11.626Z,1.90
2019-05-29T17:05:40.909Z,2.07
2019-05-29T17:08:10.412Z,2.00
2019-05-29T17:10:40.038Z,1.70
2019-05-29T17:13:09.343Z,1.70
2019-05-29T17:15:38.669Z,2.10
2019-05-29T17:18:07.946Z,1.80
2019-05-29T17:20:42.465Z,1.70
2019-05-29T17:23:12.351Z,1.77
2019-05-29T17:25:41.813Z,1.93
2019-05-29T17:28:11.093Z,2.00
2019-05-29T17:30:40.363Z,1.90
2019-05-29T17:33:09.748Z,1.90
2019-05-29T17:35:39.010Z,1.97
2019-05-29T17:38:08.365Z,1.90
2019-05-29T17:40:37.637Z,2.20
2019-05-29T17:43:06.933Z,1.83
2019-05-29T17:45:36.190Z,1.90
2019-05-29T17:48:05.745Z,2.00
2019-05-29T17:50:35.105Z,2.10
2019-05-29T17:53:04.437Z,2.40
2019-05-29T17:55:33.697Z,2.30
2019-05-29T17:58:03.014Z,2.23
2019-05-29T18:00:32.357Z,1.90
2019-05-29T18:03:01.710Z,2.20
2019-05-29T18:05:31.018Z,2.37
2019-05-29T18:08:01.777Z,2.30
2019-05-29T18:10:31.341Z,2.20
2019-05-29T18:13:00.778Z,2.20
2019-05-29T18:15:30.054Z,2.10
2019-05-29T18:17:59.345Z,2.13
2019-05-29T18:20:28.610Z,2.23
2019-05-29T18:22:57.881Z,2.53
2019-05-29T18:25:28.102Z,2.30
2019-05-29T18:27:57.605Z,2.30
2019-05-29T18:30:28.667Z,2.20
2019-05-29T18:32:58.253Z,2.60
2019-05-29T18:35:27.517Z,2.23
2019-05-29T18:37:56.835Z,2.47
2019-05-29T18:40:26.389Z,2.63
2019-05-29T18:42:55.847Z,2.10
2019-05-29T18:45:26.754Z,2.50
2019-05-29T18:47:56.222Z,2.13
2019-05-29T18:50:25.661Z,2.70
2019-05-29T18:52:55.186Z,2.30
2019-05-29T18:55:24.906Z,2.30
2019-05-29T18:57:54.281Z,2.40
2019-05-29T19:00:25.251Z,2.53
2019-05-29T19:02:54.887Z,2.20
2019-05-29T19:05:25.477Z,2.57
2019-05-29T19:07:54.954Z,2.90
2019-05-29T19:10:25.533Z,2.60
2019-05-29T19:12:54.938Z,2.80
2019-05-29T19:15:24.223Z,2.57
2019-05-29T19:17:53.531Z,2.80
2019-05-29T19:20:24.107Z,2.90
2019-05-29T19:22:53.813Z,2.60
2019-05-29T19:25:23.026Z,2.60
2019-05-29T19:27:52.530Z,2.57
2019-05-29T19:30:24.734Z,2.73
2019-05-29T19:32:54.204Z,2.57
2019-05-29T19:35:23.585Z,2.40
2019-05-29T19:37:52.951Z,2.50
2019-05-29T19:40:22.217Z,2.53
2019-05-29T19:42:54.650Z,2.50
2019-05-29T19:45:22.498Z,2.80
2019-05-29T19:47:51.834Z,2.70
2019-05-29T19:50:21.153Z,2.70
2019-05-29T19:52:50.414Z,2.30
2019-05-29T19:55:19.796Z,2.73
2019-05-29T19:57:55.750Z,2.53
2019-05-29T20:00:20.279Z,2.80
2019-05-29T20:02:49.565Z,2.97
2019-05-29T20:05:18.893Z,2.93
2019-05-29T20:07:48.169Z,3.20
2019-05-29T20:10:19.241Z,2.90
2019-05-29T20:12:48.577Z,2.87
2019-05-29T20:15:17.867Z,2.83
2019-05-29T20:17:47.124Z,3.00
2019-05-29T20:20:16.490Z,3.17
2019-05-29T20:22:45.764Z,3.00
2019-05-29T20:25:15.416Z,3.40
2019-05-29T20:27:44.673Z,3.23
2019-05-29T20:30:18.405Z,3.57
2019-05-29T20:32:47.805Z,3.77
2019-05-29T20:35:17.959Z,3.80
2019-05-29T20:37:47.316Z,3.77
2019-05-29T20:40:17.214Z,3.63
2019-05-29T20:42:46.490Z,3.67
2019-05-29T20:45:16.095Z,3.70
2019-05-29T20:47:45.462Z,3.50
2019-05-29T20:50:14.855Z,3.60
2019-05-29T20:52:44.229Z,3.67
2019-05-29T20:55:13.895Z,3.67
2019-05-29T20:57:43.163Z,3.93
2019-05-29T21:00:15.241Z,3.70
2019-05-29T21:02:44.531Z,3.87
2019-05-29T21:05:15.080Z,3.70
2019-05-29T21:07:44.459Z,3.70
2019-05-29T21:10:14.696Z,3.73
2019-05-29T21:12:47.069Z,4.17
2019-05-29T21:15:15.430Z,3.97
2019-05-29T21:17:44.730Z,3.17
2019-05-29T21:20:14.162Z,3.37
2019-05-29T21:22:44.809Z,3.27
2019-05-29T21:25:18.932Z,3.80
2019-05-29T21:27:49.090Z,3.97
2019-05-29T21:30:22.803Z,3.97
2019-05-29T21:32:52.368Z,3.57
2019-05-29T21:35:21.701Z,3.13
2019-05-29T21:37:51.003Z,3.57
2019-05-29T21:40:20.327Z,3.33
2019-05-29T21:42:49.659Z,3.30
2019-05-29T21:45:19.105Z,3.40
2019-05-29T21:47:48.649Z,3.57
2019-05-29T21:50:18.242Z,3.27
2019-05-29T21:52:47.716Z,3.60
2019-05-29T21:55:17.237Z,3.33
2019-05-29T21:57:48.793Z,3.27
2019-05-29T22:00:42.201Z,3.67
2019-05-29T22:03:11.742Z,3.70
2019-05-29T22:05:41.062Z,3.87
2019-05-29T22:08:10.394Z,3.37
2019-05-29T22:10:39.649Z,3.97
2019-05-29T22:13:08.912Z,3.30
2019-05-29T22:15:38.245Z,3.40
2019-05-29T22:18:07.433Z,3.67
2019-05-29T22:20:36.690Z,3.63
2019-05-29T22:23:06.033Z,3.70
2019-05-29T22:25:35.282Z,3.87
2019-05-29T22:28:04.815Z,3.60
2019-05-29T22:30:34.124Z,3.73
2019-05-29T22:33:03.385Z,3.93
2019-05-29T22:35:33.273Z,3.33
2019-05-29T22:38:02.530Z,3.57
2019-05-29T22:40:31.783Z,3.70
2019-05-29T22:43:01.922Z,3.13
2019-05-29T22:45:31.358Z,3.30
2019-05-29T22:48:02.104Z,3.47
2019-05-29T22:50:31.587Z,3.63
2019-05-29T22:53:01.995Z,3.27
2019-05-29T22:55:31.549Z,3.50
2019-05-29T22:58:02.106Z,3.77
2019-05-29T23:00:31.622Z,3.70
2019-05-29T23:03:00.885Z,3.77
2019-05-29T23:05:30.241Z,3.90
2019-05-29T23:08:00.329Z,3.87
2019-05-29T23:10:29.870Z,3.77
2019-05-29T23:13:02.530Z,4.07
2019-05-29T23:15:30.174Z,3.70
2019-05-29T23:18:00.550Z,3.60
2019-05-29T23:20:30.078Z,3.80
2019-05-29T23:23:00.654Z,3.97
2019-05-29T23:25:30.197Z,3.80
2019-05-29T23:27:59.491Z,4.00
2019-05-29T23:30:30.637Z,4.10
2019-05-29T23:33:00.896Z,3.73
2019-05-29T23:35:30.608Z,4.17
2019-05-29T23:37:59.867Z,3.67
2019-05-29T23:40:29.129Z,4.00
2019-05-29T23:42:59.451Z,3.90
2019-05-29T23:45:28.790Z,4.07
2019-05-29T23:47:58.049Z,3.40
2019-05-29T23:50:27.316Z,4.00
2019-05-29T23:52:57.843Z,3.90
2019-05-29T23:55:27.255Z,3.80
2019-05-29T23:57:57.589Z,4.23
